Time;durP1;ratioP1;P1;durP2;ratioP2;P2;SDS_P1;SDS_P2;PMS_P1;PMS_P2;Temp;Humidity;BMP_temperature;BMP_pressure;BME280_temperature;BME280_humidity;BME280_pressure;Samples;Min_cycle;Max_cycle;Signal;HPM_P1;HPM_P2
2020/12/08 00:00:21;;;;;;;1.98;1.47;;;;;;;2.48;66.41;97469.22;1677813;85;21207;-65
2020/12/08 00:02:51;;;;;;;2.55;1.37;;;;;;;2.47;66.40;97467.11;1677694;84;21581;-65
2020/12/08 00:05:41;;;;;;;1.60;1.10;;;;;;;2.51;66.35;97471.56;1677660;85;21170;-65
2020/12/08 00:08:09;;;;;;;1.07;0.62;;;;;;;2.40;66.79;97474.86;1644712;86;21616;-65
2020/12/08 00:10:37;;;;;;;2.10;0.98;;;;;;;2.47;66.43;97479.10;1652040;87;21160;-66
2020/12/08 00:13:06;;;;;;;1.60;1.37;;;;;;;2.50;66.39;97480.16;1651696;87;21226;-65
2020/12/08 00:15:33;;;;;;;1.67;0.95;;;;;;;2.52;66.22;97478.34;1651578;85;21197;-66
2020/12/08 00:18:01;;;;;;;0.98;0.88;;;;;;;2.48;66.38;97479.47;1651667;85;21617;-65
2020/12/08 00:20:29;;;;;;;1.77;0.90;;;;;;;2.50;66.50;97477.14;1651516;85;21200;-65
2020/12/08 00:22:57;;;;;;;2.05;1.00;;;;;;;2.51;66.46;97478.79;1651424;87;21245;-65
2020/12/08 00:25:26;;;;;;;1.42;0.80;;;;;;;2.48;66.64;97477.73;1651488;87;21203;-65
2020/12/08 00:27:53;;;;;;;0.55;0.55;;;;;;;2.51;66.55;97476.69;1651422;87;21216;-65
2020/12/08 00:30:22;;;;;;;2.37;1.25;;;;;;;2.47;66.89;97479.92;1651189;85;21700;-65
2020/12/08 00:32:50;;;;;;;2.15;1.00;;;;;;;2.46;66.95;97485.96;1651365;85;21617;-65
2020/12/08 00:35:19;;;;;;;2.17;0.95;;;;;;;2.33;67.52;97488.53;1651440;86;21168;-65
2020/12/08 00:37:47;;;;;;;5.35;1.45;;;;;;;2.37;67.51;97489.17;1651284;87;21310;-65
2020/12/08 00:40:15;;;;;;;3.83;1.10;;;;;;;2.32;67.62;97488.19;1651184;85;21228;-64
2020/12/08 00:42:43;;;;;;;1.87;0.90;;;;;;;2.34;67.33;97485.05;1651445;87;21184;-64
2020/12/08 00:45:13;;;;;;;1.62;1.10;;;;;;;2.34;67.46;97489.35;1651319;87;21322;-64
2020/12/08 00:47:46;;;;;;;1.32;0.82;;;;;;;2.37;67.32;97495.09;1651122;87;21373;-64
2020/12/08 00:50:16;;;;;;;2.40;1.20;;;;;;;2.35;67.30;97494.84;1651362;85;21333;-64
2020/12/08 00:52:44;;;;;;;4.92;1.00;;;;;;;2.26;67.65;97505.24;1651547;85;21241;-64
2020/12/08 00:55:14;;;;;;;2.22;0.95;;;;;;;2.39;67.17;97499.66;1651578;87;21192;-66
2020/12/08 00:57:44;;;;;;;1.85;1.12;;;;;;;2.41;67.03;97502.59;1651468;87;21205;-63
2020/12/08 01:00:14;;;;;;;1.52;1.10;;;;;;;2.44;66.86;97501.09;1651400;86;21168;-63
2020/12/08 01:02:43;;;;;;;3.40;1.35;;;;;;;2.46;66.71;97496.22;1651340;87;22369;-69
2020/12/08 01:05:11;;;;;;;2.92;1.12;;;;;;;2.46;66.69;97496.22;1651362;85;21224;-64
2020/12/08 01:07:40;;;;;;;2.00;0.82;;;;;;;2.40;66.93;97495.36;1648134;85;21579;-63
2020/12/08 01:10:11;;;;;;;0.75;0.62;;;;;;;2.49;66.54;97488.31;1676769;84;21234;-65
2020/12/08 01:12:40;;;;;;;2.98;1.30;;;;;;;2.51;66.53;97485.66;1676920;85;21178;-64
2020/12/08 01:15:09;;;;;;;0.98;0.70;;;;;;;2.51;66.57;97481.81;1676823;84;21644;-65
2020/12/08 01:17:37;;;;;;;2.45;0.88;;;;;;;2.54;66.43;97482.42;1676722;84;21671;-64
2020/12/08 01:20:06;;;;;;;1.55;0.90;;;;;;;2.55;66.29;97484.06;1676782;84;21194;-64
2020/12/08 01:22:35;;;;;;;2.35;1.60;;;;;;;2.60;66.35;97482.48;1676891;84;21166;-66
2020/12/08 01:25:04;;;;;;;15.15;1.25;;;;;;;2.53;66.69;97483.83;1676835;84;21595;-63
2020/12/08 01:27:36;;;;;;;2.00;1.00;;;;;;;2.50;67.02;97486.57;1676615;84;21623;-66
2020/12/08 01:30:05;;;;;;;1.90;0.90;;;;;;;2.52;66.81;97480.44;1677192;84;21237;-66
2020/12/08 01:32:35;;;;;;;2.27;1.25;;;;;;;2.53;66.62;97484.62;1677019;84;21163;-63
2020/12/08 01:35:04;;;;;;;2.72;1.25;;;;;;;2.51;66.69;97481.36;1676913;84;21131;-66
2020/12/08 01:37:32;;;;;;;3.70;0.95;;;;;;;2.50;66.71;97484.01;1676837;84;21230;-63
2020/12/08 01:40:04;;;;;;;2.37;0.90;;;;;;;2.55;66.36;97484.06;1676983;84;21171;-65
2020/12/08 01:42:32;;;;;;;2.67;0.88;;;;;;;2.62;66.17;97484.00;1676859;84;21198;-67
2020/12/08 01:45:00;;;;;;;1.05;0.90;;;;;;;2.59;66.21;97481.66;1677794;84;21179;-65
2020/12/08 01:47:30;;;;;;;0.82;0.60;;;;;;;2.54;66.59;97480.31;1677713;84;21170;-67
2020/12/08 01:50:00;;;;;;;4.80;1.50;;;;;;;2.58;66.25;97481.75;1677843;84;21282;-66
2020/12/08 01:52:31;;;;;;;4.30;1.07;;;;;;;2.59;66.08;97487.23;1676895;84;21635;-67
2020/12/08 01:55:03;;;;;;;1.22;0.70;;;;;;;2.58;65.99;97476.16;1677582;85;21203;-66
2020/12/08 01:57:33;;;;;;;2.37;0.98;;;;;;;2.54;66.17;97481.59;1677254;84;21155;-67
2020/12/08 02:00:04;;;;;;;0.88;0.70;;;;;;;2.58;65.79;97478.72;1677251;84;21158;-66
2020/12/08 02:02:34;;;;;;;1.95;0.90;;;;;;;2.61;65.71;97486.66;1678353;84;21162;-64
2020/12/08 02:05:03;;;;;;;1.50;0.85;;;;;;;2.61;65.72;97490.50;1677563;84;21162;-67
2020/12/08 02:07:32;;;;;;;1.85;1.27;;;;;;;2.59;65.51;97496.20;1680128;84;21608;-66
2020/12/08 02:10:00;;;;;;;1.42;0.98;;;;;;;2.57;65.51;97493.73;1684869;84;21329;-67
2020/12/08 02:12:30;;;;;;;0.42;0.42;;;;;;;2.63;65.26;97495.08;1660421;84;21252;-64
2020/12/08 02:15:00;;;;;;;0.90;0.50;;;;;;;2.60;65.39;97491.45;1684642;84;21743;-67
2020/12/08 02:17:29;;;;;;;0.80;0.65;;;;;;;2.63;65.10;97492.52;1684917;84;21183;-67
2020/12/08 02:19:57;;;;;;;2.85;0.85;;;;;;;2.64;65.00;97492.42;1684701;84;21212;-66
2020/12/08 02:22:26;;;;;;;0.85;0.62;;;;;;;2.63;65.06;97492.05;1684775;84;21179;-66
2020/12/08 02:24:55;;;;;;;0.98;0.50;;;;;;;2.64;65.15;97491.59;1684720;84;21188;-67
2020/12/08 02:27:24;;;;;;;0.93;0.70;;;;;;;2.64;64.95;97492.87;1684774;84;21246;-66
2020/12/08 02:29:53;;;;;;;0.70;0.40;;;;;;;2.67;64.91;97494.77;1684374;84;21286;-66
2020/12/08 02:32:22;;;;;;;0.93;0.80;;;;;;;2.67;64.97;97486.25;1659228;84;21180;-64
2020/12/08 02:34:50;;;;;;;0.88;0.50;;;;;;;2.67;64.85;97486.25;1684651;84;21333;-65
2020/12/08 02:37:19;;;;;;;0.42;0.40;;;;;;;2.71;64.74;97482.09;1684563;84;21318;-68
2020/12/08 02:39:48;;;;;;;1.25;0.50;;;;;;;2.69;64.71;97485.20;1684496;84;21739;-65
2020/12/08 02:42:18;;;;;;;1.32;0.60;;;;;;;2.69;64.51;97485.67;1684598;84;21275;-65
2020/12/08 02:44:47;;;;;;;1.17;0.72;;;;;;;2.72;64.49;97488.05;1659536;84;21192;-65
2020/12/08 02:47:15;;;;;;;1.22;0.85;;;;;;;2.73;64.38;97491.77;1685208;84;21561;-66
2020/12/08 02:49:43;;;;;;;1.05;0.60;;;;;;;2.69;64.33;97490.34;1684870;84;21240;-64
2020/12/08 02:52:11;;;;;;;1.05;0.70;;;;;;;2.72;64.19;97490.61;1684610;84;21219;-65
2020/12/08 02:54:41;;;;;;;0.37;0.25;;;;;;;2.71;64.18;97490.24;1684633;84;21159;-65
2020/12/08 02:57:09;;;;;;;0.78;0.60;;;;;;;2.75;64.05;97492.95;1684424;84;21279;-66
2020/12/08 02:59:38;;;;;;;4.97;0.60;;;;;;;2.77;63.95;97493.66;1659284;84;21168;-65
2020/12/08 03:02:07;;;;;;;0.70;0.50;;;;;;;2.80;63.95;97493.47;1684893;84;21644;-65
2020/12/08 03:04:37;;;;;;;1.30;0.40;;;;;;;2.74;64.25;97490.03;1684223;84;21224;-65
2020/12/08 03:07:07;;;;;;;1.20;0.65;;;;;;;2.77;64.14;97493.66;1639153;87;21618;-66
2020/12/08 03:09:37;;;;;;;0.50;0.40;;;;;;;2.75;64.21;97493.78;1656730;85;21181;-65
2020/12/08 03:12:11;;;;;;;0.93;0.70;;;;;;;2.74;64.15;97494.70;1656432;85;21621;-67
2020/12/08 03:14:40;;;;;;;0.62;0.47;;;;;;;2.76;64.17;97494.11;1656912;85;21225;-66
2020/12/08 03:17:10;;;;;;;1.12;1.02;;;;;;;2.72;64.24;97491.41;1657068;85;21633;-67
2020/12/08 03:19:41;;;;;;;2.62;0.60;;;;;;;2.74;64.24;97491.31;1657625;85;21196;-67
2020/12/08 03:22:10;;;;;;;6.12;0.90;;;;;;;2.70;64.26;97492.44;1656701;85;21177;-67
2020/12/08 03:24:40;;;;;;;0.75;0.60;;;;;;;2.69;64.43;97489.52;1654650;85;21622;-67
2020/12/08 03:27:09;;;;;;;11.25;0.55;;;;;;;2.71;64.36;97491.06;1656350;85;21221;-67
2020/12/08 03:29:37;;;;;;;3.37;0.65;;;;;;;2.68;64.57;97493.84;1656212;85;21193;-67
2020/12/08 03:32:06;;;;;;;1.70;1.35;;;;;;;2.69;64.49;97491.62;1656340;85;21594;-64
2020/12/08 03:34:35;;;;;;;0.45;0.42;;;;;;;2.67;64.62;97493.94;1656422;85;21657;-65
2020/12/08 03:37:04;;;;;;;4.20;0.78;;;;;;;2.73;64.48;97499.91;1656457;85;21578;-65
2020/12/08 03:39:33;;;;;;;2.25;1.15;;;;;;;2.63;64.94;97496.36;1656282;85;21618;-66
2020/12/08 03:42:05;;;;;;;2.33;0.88;;;;;;;2.69;64.62;97502.33;1656631;85;21661;-66
2020/12/08 03:44:34;;;;;;;0.33;0.33;;;;;;;2.70;64.69;97502.70;1656488;85;21176;-65
2020/12/08 03:47:05;;;;;;;0.65;0.65;;;;;;;2.67;64.82;97501.63;1656028;85;21162;-65
2020/12/08 03:49:34;;;;;;;0.50;0.50;;;;;;;2.64;64.91;97503.95;1656418;85;21623;-64
2020/12/08 03:52:04;;;;;;;2.92;0.55;;;;;;;2.68;64.85;97508.41;1656346;85;21230;-65
2020/12/08 03:54:32;;;;;;;0.80;0.70;;;;;;;2.66;64.87;97510.24;1656230;85;21182;-67
2020/12/08 03:57:04;;;;;;;3.98;0.75;;;;;;;2.63;65.27;97510.00;1633627;85;21217;-64
2020/12/08 03:59:32;;;;;;;2.98;0.42;;;;;;;2.64;65.32;97508.26;1656526;85;21161;-65
2020/12/08 04:02:08;;;;;;;;;;;;;;;2.64;65.34;97510.82;1658981;85;21194;-64
2020/12/08 04:04:40;;;;;;;0.70;0.70;;;;;;;2.64;65.52;97517.23;1656522;85;20187;-66
2020/12/08 04:07:11;;;;;;;4.87;0.62;;;;;;;2.57;65.79;97518.09;1656186;85;21178;-64
2020/12/08 04:09:40;;;;;;;0.53;0.30;;;;;;;2.58;65.90;97522.75;1646217;87;21206;-65
2020/12/08 04:12:10;;;;;;;1.20;0.68;;;;;;;2.55;66.17;97520.41;1646105;87;21205;-68
2020/12/08 04:14:38;;;;;;;2.62;0.75;;;;;;;2.58;66.19;97516.34;1646277;86;21154;-65
2020/12/08 04:17:07;;;;;;;3.70;1.00;;;;;;;2.58;66.38;97521.47;1676819;84;21174;-65
2020/12/08 04:19:35;;;;;;;1.25;0.80;;;;;;;2.55;66.56;97527.64;1676731;84;21188;-65
2020/12/08 04:22:03;;;;;;;1.02;0.70;;;;;;;2.52;66.57;97525.75;1676800;84;21186;-64
2020/12/08 04:24:33;;;;;;;0.55;0.42;;;;;;;2.49;66.74;97522.91;1677087;84;21222;-64
2020/12/08 04:27:02;;;;;;;4.40;1.20;;;;;;;2.55;66.57;97526.36;1676886;84;21726;-65
2020/12/08 04:29:32;;;;;;;0.78;0.65;;;;;;;2.53;66.86;97528.19;1676994;84;21588;-64
2020/12/08 04:32:00;;;;;;;9.28;1.00;;;;;;;2.50;67.11;97525.02;1676931;84;21186;-64
2020/12/08 04:34:28;;;;;;;4.28;0.80;;;;;;;2.50;67.32;97523.27;1677104;84;21185;-64
2020/12/08 04:37:00;;;;;;;1.37;1.22;;;;;;;2.56;67.33;97527.18;1677133;85;21604;-65
2020/12/08 04:39:28;;;;;;;0.72;0.65;;;;;;;2.47;68.42;97529.08;1677210;85;21174;-66
2020/12/08 04:41:57;;;;;;;1.77;0.60;;;;;;;2.54;68.09;97532.86;1677138;84;21179;-65
2020/12/08 04:44:26;;;;;;;5.25;1.00;;;;;;;2.57;68.36;97533.95;1676847;85;21187;-64
2020/12/08 04:46:56;;;;;;;1.90;1.05;;;;;;;2.49;69.37;97534.44;1676878;84;21215;-66
2020/12/08 04:49:25;;;;;;;1.37;1.00;;;;;;;2.52;69.54;97537.28;1676671;84;21187;-66
2020/12/08 04:51:55;;;;;;;1.05;0.95;;;;;;;2.46;70.06;97537.22;1676751;84;21592;-66
2020/12/08 04:54:24;;;;;;;0.75;0.53;;;;;;;2.47;70.76;97541.89;1676704;84;21210;-67
2020/12/08 04:56:52;;;;;;;2.67;1.00;;;;;;;2.39;71.22;97546.25;1676655;84;21572;-67
2020/12/08 04:59:22;;;;;;;1.82;0.82;;;;;;;2.44;72.51;97542.09;1682088;84;21171;-67
2020/12/08 05:01:50;;;;;;;1.30;0.70;;;;;;;2.43;72.76;97542.56;1687841;83;21167;-66
2020/12/08 05:04:48;;;;;;;0.98;0.80;;;;;;;2.39;73.70;97547.53;1681266;83;21236;-66
2020/12/08 05:07:17;;;;;;;0.90;0.68;;;;;;;2.44;72.38;97547.23;1697238;84;21337;-66
2020/12/08 05:09:47;;;;;;;1.87;0.85;;;;;;;2.36;74.98;97546.00;1668708;84;21244;-67
2020/12/08 05:12:25;;;;;;;1.72;1.00;;;;;;;2.28;75.72;97550.81;1669405;84;21184;-64
2020/12/08 05:14:53;;;;;;;1.20;0.98;;;;;;;2.19;77.37;97555.70;1669641;85;21680;-65
2020/12/08 05:17:27;;;;;;;1.35;0.90;;;;;;;2.16;78.17;97556.73;1669379;86;21632;-65
2020/12/08 05:20:06;;;;;;;1.35;1.25;;;;;;;2.18;77.75;97558.73;1669470;86;21197;-67
2020/12/08 05:22:36;;;;;;;1.40;0.85;;;;;;;2.06;79.19;97556.17;1690846;84;21189;-66
2020/12/08 05:25:19;;;;;;;1.47;1.22;;;;;;;2.10;78.44;97557.13;1734260;83;21581;-66
2020/12/08 05:27:52;;;;;;;1.87;0.80;;;;;;;2.08;79.79;97558.98;1734279;82;21139;-66
2020/12/08 05:30:21;;;;;;;2.42;1.20;;;;;;;2.02;80.60;97564.97;1734236;83;21205;-67
2020/12/08 05:32:49;;;;;;;2.35;0.93;;;;;;;1.95;81.58;97563.70;1727980;82;21191;-67
2020/12/08 05:35:22;;;;;;;5.15;1.55;;;;;;;1.86;82.17;97566.42;1712740;83;21592;-67
2020/12/08 05:37:53;;;;;;;4.22;2.42;;;;;;;1.80;82.95;97576.58;1713035;82;21597;-67
2020/12/08 05:40:25;;;;;;;1.65;1.55;;;;;;;1.58;84.42;97579.33;1713276;82;21586;-67
2020/12/08 05:42:55;;;;;;;1.27;1.12;;;;;;;1.82;82.47;97579.88;1721182;83;21144;-65
2020/12/08 05:45:24;;;;;;;1.32;1.12;;;;;;;1.81;82.62;97587.19;1734318;82;21223;-67
2020/12/08 05:47:58;;;;;;;1.25;1.12;;;;;;;1.82;81.95;97584.17;1734443;82;21171;-67
2020/12/08 05:50:27;;;;;;;1.70;0.90;;;;;;;1.83;81.96;97585.80;1734425;82;21568;-67
2020/12/08 05:52:58;;;;;;;12.15;2.87;;;;;;;1.65;83.72;97594.66;1734918;82;21227;-66
2020/12/08 05:55:40;;;;;;;1.10;0.93;;;;;;;1.71;83.81;97595.56;1734265;83;21162;-66
2020/12/08 05:58:12;;;;;;;3.25;1.27;;;;;;;1.70;83.90;97596.02;1734170;83;21222;-65
2020/12/08 06:00:40;;;;;;;3.70;2.17;;;;;;;1.49;85.63;97603.74;1734120;81;21238;-67
2020/12/08 06:03:14;;;;;;;2.90;2.05;;;;;;;1.56;85.12;97606.28;1728152;83;21163;-67
2020/12/08 06:05:45;;;;;;;2.33;1.75;;;;;;;1.45;85.71;97606.13;1727085;83;21325;-67
2020/12/08 06:08:24;;;;;;;2.05;1.67;;;;;;;1.38;86.12;97613.83;1725396;83;21243;-66
2020/12/08 06:10:57;;;;;;;2.67;2.05;;;;;;;1.41;86.50;97625.14;1711498;83;21656;-66
2020/12/08 06:13:31;;;;;;;1.25;0.98;;;;;;;1.43;86.50;97627.99;1641786;85;21226;-66
2020/12/08 06:16:18;;;;;;;2.37;1.45;;;;;;;1.46;86.45;97626.14;1633406;88;21727;-66
2020/12/08 06:18:52;;;;;;;0.75;0.75;;;;;;;1.33;86.71;97627.34;1633515;88;21190;-67
2020/12/08 06:21:27;;;;;;;2.37;1.57;;;;;;;1.44;85.94;97630.89;1633406;88;21262;-66
2020/12/08 06:24:21;;;;;;;2.45;2.25;;;;;;;1.48;86.18;97637.92;1632878;86;21344;-66
2020/12/08 06:26:49;;;;;;;2.00;0.85;;;;;;;1.42;86.27;97630.17;1669883;85;21673;-66
2020/12/08 06:29:19;;;;;;;1.57;0.62;;;;;;;1.39;86.25;97634.66;1723745;82;21190;-67
2020/12/08 06:31:49;;;;;;;0.93;0.55;;;;;;;1.41;85.96;97637.48;1667863;84;21740;-67
2020/12/08 06:34:25;;;;;;;0.70;0.50;;;;;;;1.50;85.65;97644.23;1686333;84;21189;-67
2020/12/08 06:36:54;;;;;;;0.33;0.30;;;;;;;1.54;85.59;97648.25;1686290;84;21213;-67
2020/12/08 06:39:23;;;;;;;2.40;1.30;;;;;;;1.61;85.04;97638.81;1686515;83;21177;-67
2020/12/08 06:41:53;;;;;;;1.45;0.80;;;;;;;1.55;85.59;97643.05;1686450;84;21190;-67
2020/12/08 06:44:22;;;;;;;1.40;0.90;;;;;;;1.54;85.63;97649.07;1686359;84;21185;-67
2020/12/08 06:47:18;;;;;;;1.67;1.25;;;;;;;1.67;85.06;97645.30;1668732;85;21209;-68
2020/12/08 06:49:46;;;;;;;1.95;1.60;;;;;;;1.72;84.42;97644.53;1764639;80;21208;-66
2020/12/08 06:52:14;;;;;;;1.95;1.35;;;;;;;1.75;85.14;97649.48;1728467;82;21195;-67
2020/12/08 06:54:42;;;;;;;1.45;0.65;;;;;;;1.68;85.81;97653.32;1742355;82;21131;-67
2020/12/08 06:57:10;;;;;;;1.40;1.10;;;;;;;1.79;85.09;97656.06;1764583;80;21660;-67
2020/12/08 06:59:38;;;;;;;1.95;1.02;;;;;;;1.85;84.58;97647.98;1764506;80;21149;-66
2020/12/08 07:02:07;;;;;;;3.47;2.05;;;;;;;1.84;84.34;97655.29;1764014;81;21188;-66
2020/12/08 07:04:35;;;;;;;2.35;1.47;;;;;;;1.88;84.80;97656.28;1738924;80;21180;-66
2020/12/08 07:07:03;;;;;;;2.08;0.90;;;;;;;1.91;84.12;97657.83;1764629;80;21173;-67
2020/12/08 07:09:35;;;;;;;2.22;1.10;;;;;;;1.90;84.23;97658.77;1764433;80;21156;-67
2020/12/08 07:12:04;;;;;;;2.55;1.72;;;;;;;1.74;83.97;97664.48;1764563;81;21172;-69
2020/12/08 07:14:36;;;;;;;2.15;1.07;;;;;;;1.75;84.82;97664.36;1764445;80;21211;-70
2020/12/08 07:19:42;;;;;;;1.10;1.00;;;;;;;1.74;85.37;97660.18;1651101;87;21611;-67
2020/12/08 07:22:10;;;;;;;4.00;2.42;;;;;;;1.74;85.18;97667.86;1644365;86;21196;-66
2020/12/08 07:24:43;;;;;;;1.20;1.05;;;;;;;1.79;85.40;97667.58;1644677;86;21244;-67
2020/12/08 07:27:12;;;;;;;1.30;1.00;;;;;;;1.80;85.03;97667.92;1644386;86;21220;-66
2020/12/08 07:29:40;;;;;;;1.42;0.72;;;;;;;1.78;85.56;97671.05;1621954;86;21711;-66
2020/12/08 07:32:08;;;;;;;2.87;1.40;;;;;;;1.85;85.78;97664.17;1644120;86;21200;-66
2020/12/08 07:34:36;;;;;;;1.62;1.17;;;;;;;1.89;85.72;97668.18;1644149;87;21197;-63
2020/12/08 07:37:04;;;;;;;1.85;1.02;;;;;;;2.02;84.63;97664.39;1621632;88;21166;-64
2020/12/08 07:39:36;;;;;;;0.70;0.70;;;;;;;2.03;84.62;97670.31;1642947;87;21213;-64
2020/12/08 07:42:07;;;;;;;1.87;1.15;;;;;;;1.86;84.22;97664.54;1622609;87;21182;-65
2020/12/08 07:44:37;;;;;;;2.22;0.78;;;;;;;1.99;84.84;97658.62;1622872;87;21155;-65
2020/12/08 07:47:26;;;;;;;1.85;1.10;;;;;;;1.95;84.31;97665.67;1643067;86;21609;-65
2020/12/08 07:49:54;;;;;;;1.55;0.98;;;;;;;1.86;85.12;97665.81;1677632;85;21357;-65
2020/12/08 07:52:22;;;;;;;0.95;0.60;;;;;;;1.98;85.89;97657.00;1677465;85;21200;-71
2020/12/08 07:54:50;;;;;;;0.98;0.90;;;;;;;2.07;85.28;97660.23;1677605;85;21186;-72
2020/12/08 07:57:18;;;;;;;3.67;2.62;;;;;;;2.14;84.56;97667.92;1677431;84;21131;-72
2020/12/08 07:59:47;;;;;;;5.80;4.37;;;;;;;2.06;85.66;97663.73;1677527;84;21230;-71
2020/12/08 08:02:16;;;;;;;4.17;2.77;;;;;;;2.08;85.17;97665.27;1677466;85;21238;-72
2020/12/08 08:04:44;;;;;;;3.25;1.87;;;;;;;2.19;84.69;97664.58;1643339;86;21165;-74
2020/12/08 08:07:14;;;;;;;18.10;1.70;;;;;;;2.17;84.41;97669.82;1642338;87;21249;-72
2020/12/08 08:09:42;;;;;;;4.70;3.05;;;;;;;2.11;84.98;97664.25;1641910;87;21580;-72
2020/12/08 08:12:10;;;;;;;3.50;2.45;;;;;;;2.13;85.76;97667.55;1617163;87;21183;-72
2020/12/08 08:14:39;;;;;;;3.42;1.65;;;;;;;2.06;86.00;97664.56;1639616;86;21193;-72
2020/12/08 08:17:07;;;;;;;4.65;2.87;;;;;;;2.19;85.56;97674.83;1634475;87;21506;-73
2020/12/08 08:19:39;;;;;;;7.37;2.45;;;;;;;2.12;86.29;97671.02;1637125;87;21201;-73
2020/12/08 08:22:07;;;;;;;2.22;1.35;;;;;;;2.12;86.32;97665.44;1638949;87;21239;-73
2020/12/08 08:24:36;;;;;;;0.80;0.80;;;;;;;2.05;85.87;97668.03;1617239;87;21657;-72
2020/12/08 08:27:05;;;;;;;4.75;2.50;;;;;;;2.14;85.71;97667.43;1639530;86;21165;-72
2020/12/08 08:29:33;;;;;;;2.98;2.33;;;;;;;2.05;86.32;97673.61;1639486;86;21261;-72
2020/12/08 08:32:05;;;;;;;1.50;1.40;;;;;;;2.04;86.56;97672.79;1634158;87;21188;-74
2020/12/08 08:34:33;;;;;;;2.80;2.12;;;;;;;2.12;86.52;97676.97;1642325;87;21208;-72
2020/12/08 08:37:03;;;;;;;2.75;2.35;;;;;;;2.23;85.83;97677.09;1641663;87;21264;-72
2020/12/08 08:39:32;;;;;;;5.37;1.87;;;;;;;2.22;86.36;97674.63;1642691;87;21184;-73
2020/12/08 08:42:01;;;;;;;3.87;2.70;;;;;;;2.28;86.13;97675.53;1632303;87;21269;-73
2020/12/08 08:44:30;;;;;;;3.72;2.30;;;;;;;2.32;86.34;97676.52;1642242;86;21204;-72
2020/12/08 08:46:58;;;;;;;3.45;2.55;;;;;;;2.09;86.53;97671.22;1616841;87;21675;-73
2020/12/08 08:49:27;;;;;;;5.08;2.17;;;;;;;2.19;86.52;97673.09;1639618;86;21233;-73
2020/12/08 08:51:55;;;;;;;6.15;2.20;;;;;;;2.14;86.23;97669.98;1641810;86;21617;-72
2020/12/08 08:54:24;;;;;;;4.20;2.70;;;;;;;2.16;87.32;97670.73;1641738;86;21197;-73
2020/12/08 08:56:55;;;;;;;4.10;2.45;;;;;;;2.12;87.65;97670.56;1687246;83;21197;-73
2020/12/08 08:59:25;;;;;;;7.87;2.55;;;;;;;2.22;87.16;97664.38;1688718;85;21183;-72
2020/12/08 09:01:54;;;;;;;5.95;2.95;;;;;;;2.15;87.12;97670.81;1648858;85;21590;-72
2020/12/08 09:04:23;;;;;;;6.08;1.50;;;;;;;2.12;87.94;97674.41;1624882;87;21297;-72
2020/12/08 09:06:51;;;;;;;4.62;2.52;;;;;;;2.23;86.62;97666.03;1684682;83;21576;-72
2020/12/08 09:09:19;;;;;;;3.08;2.25;;;;;;;2.25;86.76;97671.89;1645548;86;21561;-71
2020/12/08 09:11:48;;;;;;;8.65;2.30;;;;;;;2.21;87.69;97669.16;1627463;87;21241;-73
2020/12/08 09:14:17;;;;;;;4.42;2.40;;;;;;;2.31;87.53;97668.46;1691365;83;21545;-73
2020/12/08 09:16:45;;;;;;;5.08;1.90;;;;;;;2.37;86.55;97667.27;1690443;83;21175;-73
2020/12/08 09:19:14;;;;;;;2.77;2.22;;;;;;;2.40;86.12;97669.62;1646819;87;21257;-72
2020/12/08 09:21:42;;;;;;;2.95;1.95;;;;;;;2.42;85.95;97661.81;1648031;86;21197;-73
2020/12/08 09:24:13;;;;;;;4.20;2.50;;;;;;;2.52;86.38;97656.47;1630323;86;21165;-72
2020/12/08 09:26:46;;;;;;;4.60;1.75;;;;;;;2.55;86.13;97657.08;1676561;84;21197;-73
2020/12/08 09:29:16;;;;;;;1.57;1.37;;;;;;;2.52;85.45;97649.60;1653700;85;21189;-72
2020/12/08 09:31:44;;;;;;;1.95;1.52;;;;;;;2.55;85.80;97654.52;1640507;87;21241;-70
2020/12/08 09:34:12;;;;;;;1.67;0.98;;;;;;;2.59;85.63;97658.52;1627227;87;21194;-72
2020/12/08 09:36:40;;;;;;;4.08;1.55;;;;;;;2.56;85.31;97653.61;1691055;83;21203;-72
2020/12/08 09:39:08;;;;;;;3.87;2.10;;;;;;;2.75;84.96;97656.59;1688121;83;21240;-72
2020/12/08 09:41:36;;;;;;;3.58;2.30;;;;;;;2.73;85.20;97655.86;1648441;86;21200;-72
2020/12/08 09:44:08;;;;;;;1.45;1.32;;;;;;;2.83;85.28;97650.50;1652528;85;21189;-72
2020/12/08 09:46:34;;;;;;;3.90;1.92;;;;;;;2.87;84.43;97648.55;1653901;87;21199;-74
2020/12/08 09:49:02;;;;;;;3.85;2.05;;;;;;;2.82;84.34;97644.17;1654269;86;21217;-74
2020/12/08 09:51:31;;;;;;;5.33;3.55;;;;;;;2.83;84.73;97653.06;1656097;86;21190;-69
2020/12/08 09:54:20;;;;;;;4.60;3.17;;;;;;;2.91;85.00;97646.59;1654453;85;21320;-69
2020/12/08 09:56:48;;;;;;;6.87;2.25;;;;;;;2.86;85.43;97650.28;1692870;84;21204;-68
2020/12/08 09:59:17;;;;;;;2.25;1.62;;;;;;;2.89;84.79;97646.69;1692494;85;21641;-69
2020/12/08 10:01:45;;;;;;;3.00;2.12;;;;;;;3.01;84.15;97651.45;1692522;85;21629;-69
2020/12/08 10:04:13;;;;;;;4.08;2.62;;;;;;;3.04;84.32;97640.97;1692375;84;21208;-68
2020/12/08 10:06:42;;;;;;;5.47;2.85;;;;;;;3.07;84.59;97636.94;1703144;83;21637;-68
2020/12/08 10:09:10;;;;;;;2.35;1.70;;;;;;;3.03;84.45;97641.47;1706704;84;21566;-70
2020/12/08 10:11:38;;;;;;;1.98;1.15;;;;;;;3.11;83.94;97640.94;1707062;84;21145;-68
2020/12/08 10:14:06;;;;;;;1.50;0.90;;;;;;;3.17;83.79;97641.80;1706883;84;21177;-68
2020/12/08 10:16:34;;;;;;;1.60;0.90;;;;;;;3.22;84.53;97641.03;1691821;83;21180;-69
2020/12/08 10:19:03;;;;;;;2.95;1.85;;;;;;;3.29;83.00;97639.67;1690955;84;21411;-69
2020/12/08 10:21:31;;;;;;;2.22;1.60;;;;;;;3.24;83.38;97639.98;1691659;83;21192;-66
2020/12/08 10:24:00;;;;;;;2.40;1.02;;;;;;;3.18;83.97;97635.28;1688057;83;21235;-67
2020/12/08 10:26:29;;;;;;;2.47;1.47;;;;;;;3.38;83.64;97636.94;1690963;83;21148;-67
2020/12/08 10:28:59;;;;;;;0.70;0.70;;;;;;;3.23;83.66;97635.77;1691187;85;21141;-67
2020/12/08 10:31:27;;;;;;;1.05;0.60;;;;;;;3.42;82.49;97632.78;1690759;84;21167;-67
2020/12/08 10:33:56;;;;;;;1.05;0.88;;;;;;;3.42;82.32;97634.06;1691031;85;21200;-66
2020/12/08 10:36:24;;;;;;;1.30;0.93;;;;;;;3.34;82.76;97635.88;1703491;84;21624;-67
2020/12/08 10:38:53;;;;;;;2.27;1.75;;;;;;;3.44;82.26;97628.80;1706762;84;21165;-66
2020/12/08 10:41:22;;;;;;;1.02;0.75;;;;;;;3.52;82.21;97633.77;1707249;83;21172;-68
2020/12/08 10:43:50;;;;;;;2.52;1.67;;;;;;;3.44;82.62;97626.23;1707326;83;21168;-67
2020/12/08 10:46:18;;;;;;;3.33;2.17;;;;;;;3.58;83.01;97624.83;1707363;84;21247;-66
2020/12/08 10:48:49;;;;;;;2.45;1.60;;;;;;;3.45;82.90;97631.27;1707067;84;21605;-66
2020/12/08 10:51:22;;;;;;;1.72;1.42;;;;;;;3.53;83.45;97630.28;1707189;83;21169;-66
2020/12/08 10:53:51;;;;;;;2.15;1.30;;;;;;;3.66;81.90;97627.65;1707029;84;21185;-67
2020/12/08 10:56:23;;;;;;;2.92;2.17;;;;;;;3.60;82.73;97628.92;1711422;83;21161;-67
2020/12/08 10:58:53;;;;;;;5.53;2.60;;;;;;;3.63;82.71;97627.41;1712883;83;21601;-66
2020/12/08 11:01:23;;;;;;;2.58;1.27;;;;;;;3.65;83.08;97629.88;1712318;82;21219;-66
2020/12/08 11:03:53;;;;;;;1.55;0.95;;;;;;;3.59;82.60;97628.55;1700500;84;21196;-67
2020/12/08 11:06:46;;;;;;;1.00;0.82;;;;;;;3.81;81.82;97621.45;1698842;84;21290;-66
2020/12/08 11:09:15;;;;;;;1.35;1.12;;;;;;;3.83;81.42;97620.87;1730805;82;21558;-66
2020/12/08 11:11:43;;;;;;;2.40;1.70;;;;;;;3.72;82.70;97615.22;1730818;81;21593;-67
2020/12/08 11:14:11;;;;;;;3.22;1.40;;;;;;;3.54;83.07;97611.36;1730106;81;21185;-67
2020/12/08 11:16:46;;;;;;;1.67;1.27;;;;;;;3.94;81.02;97614.95;1727281;82;22399;-67
2020/12/08 11:19:16;;;;;;;1.30;1.07;;;;;;;3.86;82.27;97613.40;1727660;82;21121;-67
2020/12/08 11:21:44;;;;;;;1.57;1.22;;;;;;;3.81;82.34;97611.98;1730888;83;21189;-68
2020/12/08 11:24:13;;;;;;;2.12;1.17;;;;;;;3.90;82.22;97613.53;1702944;83;21177;-67
2020/12/08 11:26:44;;;;;;;2.35;1.25;;;;;;;3.98;81.99;97609.49;1731010;81;21177;-67
2020/12/08 11:29:12;;;;;;;3.50;2.77;;;;;;;4.01;81.97;97610.55;1731028;83;21181;-67
2020/12/08 11:31:39;;;;;;;2.47;1.95;;;;;;;3.95;82.43;97608.44;1730925;83;21187;-67
2020/12/08 11:34:09;;;;;;;3.87;2.60;;;;;;;4.19;81.02;97604.09;1730897;82;21590;-67
2020/12/08 11:36:37;;;;;;;1.50;1.27;;;;;;;4.17;80.03;97607.23;1731105;83;21153;-67
2020/12/08 11:39:06;;;;;;;3.72;2.20;;;;;;;4.26;79.85;97610.88;1731039;81;21243;-68
2020/12/08 11:41:34;;;;;;;4.10;1.90;;;;;;;4.12;79.47;97602.91;1729778;81;21208;-74
2020/12/08 11:44:02;;;;;;;5.70;3.05;;;;;;;4.35;79.79;97600.40;1729563;83;21220;-73
2020/12/08 11:46:30;;;;;;;10.10;3.87;;;;;;;4.54;78.47;97600.22;1729538;83;21605;-72
2020/12/08 11:48:58;;;;;;;6.95;1.22;;;;;;;4.77;77.95;97600.59;1735889;81;21164;-67
2020/12/08 11:51:26;;;;;;;2.40;1.30;;;;;;;4.84;76.03;97597.55;1731092;82;21165;-67
2020/12/08 11:53:57;;;;;;;2.40;1.22;;;;;;;5.10;76.07;97596.38;1733402;81;21188;-67
2020/12/08 11:56:26;;;;;;;1.32;1.12;;;;;;;5.11;74.58;97589.84;1733383;81;21190;-72